Time;durP1;ratioP1;P1;durP2;ratioP2;P2;SDS_P1;SDS_P2;PMS_P1;PMS_P2;Temp;Humidity;BMP_temperature;BMP_pressure;BME280_temperature;BME280_humidity;BME280_pressure;Samples;Min_cycle;Max_cycle;Signal;HPM_P1;HPM_P2
2021/03/26 00:04:30;;;;;;;19.85;12.10;;;;;;;9.53;43.59;98092.91;10121643;29;20048;-78
2021/03/26 00:09:50;;;;;;;18.38;11.57;;;;;;;9.58;43.75;98087.06;10147525;29;20523;-78
2021/03/26 00:15:10;;;;;;;17.45;9.85;;;;;;;9.68;43.87;98090.63;10135569;29;20044;-78
2021/03/26 00:20:30;;;;;;;16.58;10.10;;;;;;;9.74;43.45;98087.56;10141504;29;20048;-78
2021/03/26 00:25:50;;;;;;;20.70;10.30;;;;;;;9.73;43.76;98086.09;10141364;29;20044;-78
2021/03/26 00:31:10;;;;;;;16.85;9.98;;;;;;;9.72;43.53;98084.63;10141553;29;20044;-78
2021/03/26 00:36:31;;;;;;;14.32;9.82;;;;;;;9.71;44.11;98083.16;10140814;29;20048;-78
2021/03/26 00:41:51;;;;;;;16.00;10.82;;;;;;;9.68;44.20;98082.28;10153899;29;20071;-78
2021/03/26 00:47:11;;;;;;;15.23;9.55;;;;;;;9.67;44.03;98080.06;10140432;29;20388;-78
2021/03/26 00:52:30;;;;;;;16.70;10.02;;;;;;;9.61;43.97;98079.59;10153296;29;20048;-78
2021/03/26 00:57:50;;;;;;;15.75;10.05;;;;;;;9.48;44.41;98088.34;10139934;29;20495;-78
2021/03/26 01:03:10;;;;;;;18.77;10.00;;;;;;;9.34;44.43;98080.34;10153037;29;20080;-78
2021/03/26 01:08:30;;;;;;;16.63;9.23;;;;;;;9.24;45.03;98081.63;10139456;29;20075;-78
2021/03/26 01:13:57;;;;;;;14.63;9.52;;;;;;;9.10;45.01;98072.91;10153914;29;20047;-78
2021/03/26 01:19:19;;;;;;;15.75;9.30;;;;;;;9.00;45.53;98080.47;10139971;29;20044;-78
2021/03/26 01:24:40;;;;;;;14.73;9.48;;;;;;;8.86;45.51;98072.44;10139567;29;20048;-78
2021/03/26 01:30:00;;;;;;;15.52;9.13;;;;;;;8.76;46.20;98077.22;10151972;29;20070;-78
2021/03/26 01:35:21;;;;;;;13.68;9.38;;;;;;;8.73;46.33;98069.28;10151675;29;20059;-78
2021/03/26 01:40:46;;;;;;;19.00;10.40;;;;;;;8.74;47.20;98071.50;10138366;29;20044;-78
2021/03/26 01:46:06;;;;;;;;;;;;;;;8.80;47.49;98068.47;10138744;29;20048;-78
2021/03/26 01:51:42;;;;;;;15.82;9.52;;;;;;;8.88;46.96;98069.84;10137797;29;19923;-79
2021/03/26 01:57:02;;;;;;;14.27;8.88;;;;;;;8.99;46.64;98073.41;10137625;29;20511;-79
2021/03/26 02:02:32;;;;;;;14.10;9.25;;;;;;;9.13;47.35;98071.75;10145218;29;20044;-79
2021/03/26 02:08:19;;;;;;;15.20;9.15;;;;;;;9.22;46.89;98073.84;10152390;29;20095;-78
2021/03/26 02:13:52;;;;;;;14.60;8.43;;;;;;;9.24;46.57;98082.34;10113913;29;20448;-78
2021/03/26 02:19:29;;;;;;;14.32;8.70;;;;;;;9.17;46.90;98072.81;10124399;29;20044;-79
2021/03/26 02:24:51;;;;;;;14.15;8.73;;;;;;;9.09;46.96;98071.44;10110481;29;20045;-78
2021/03/26 02:30:30;;;;;;;12.70;8.27;;;;;;;8.95;47.40;98073.81;10085566;29;20052;-78
2021/03/26 02:36:12;;;;;;;15.13;8.95;;;;;;;8.84;47.51;98075.06;10098539;29;20052;-78
2021/03/26 02:41:50;;;;;;;17.20;9.25;;;;;;;8.72;48.46;98079.69;10092594;29;20058;-78
2021/03/26 02:47:50;;;;;;;15.13;9.10;;;;;;;8.70;48.05;98082.31;10104197;29;20052;-78
2021/03/26 02:53:42;;;;;;;15.68;9.05;;;;;;;8.71;47.78;98077.47;10106780;29;20049;-78
2021/03/26 02:59:21;;;;;;;15.50;9.38;;;;;;;8.79;47.93;98084.44;10123068;29;20450;-78
2021/03/26 03:05:12;;;;;;;13.33;8.90;;;;;;;8.88;48.46;98091.38;10099763;29;20049;-78
2021/03/26 03:10:41;;;;;;;16.85;8.98;;;;;;;8.96;48.19;98080.13;10103069;29;20450;-78
2021/03/26 03:16:14;;;;;;;14.20;8.93;;;;;;;9.01;48.22;98088.22;10084889;29;20186;-78
2021/03/26 03:22:12;;;;;;;15.38;9.32;;;;;;;9.05;48.12;98094.09;10098005;29;20049;-78
2021/03/26 03:28:08;;;;;;;17.33;9.63;;;;;;;9.02;48.40;98089.69;10116367;29;20084;-78
2021/03/26 03:33:40;;;;;;;19.23;9.68;;;;;;;9.07;47.96;98085.94;10099578;29;20051;-78
2021/03/26 03:39:11;;;;;;;16.27;9.93;;;;;;;9.17;47.96;98094.34;10096015;29;20055;-78
2021/03/26 03:45:01;;;;;;;15.43;9.73;;;;;;;9.15;48.35;98089.34;10113081;29;20049;-78
2021/03/26 03:50:25;;;;;;;14.38;9.10;;;;;;;9.12;48.30;98081.41;10098828;29;20044;-78
2021/03/26 03:56:07;;;;;;;15.35;9.20;;;;;;;9.14;48.34;98087.88;10104384;29;20072;-78
2021/03/26 04:01:47;;;;;;;13.70;8.52;;;;;;;9.16;48.76;98101.22;10106522;29;20052;-78
2021/03/26 04:07:13;;;;;;;14.95;8.85;;;;;;;9.15;48.89;98085.81;10092067;29;20507;-78
2021/03/26 04:12:36;;;;;;;14.63;8.15;;;;;;;9.14;48.54;98089.91;10103494;29;20060;-78
2021/03/26 04:18:04;;;;;;;13.60;8.52;;;;;;;9.20;48.45;98093.19;10105385;29;20048;-78
2021/03/26 04:23:59;;;;;;;13.23;8.15;;;;;;;9.19;48.66;98091.72;10142083;29;20052;-78
2021/03/26 04:29:38;;;;;;;15.80;9.15;;;;;;;9.13;48.61;98102.38;10105516;29;20049;-78
2021/03/26 04:35:03;;;;;;;16.30;9.25;;;;;;;9.03;49.49;98104.34;10129672;29;20045;-78
2021/03/26 04:40:29;;;;;;;13.15;8.23;;;;;;;8.98;48.67;98106.09;10114981;29;20060;-78
2021/03/26 04:46:29;;;;;;;18.40;8.82;;;;;;;9.02;48.83;98097.31;10114758;29;20074;-78
2021/03/26 04:52:03;;;;;;;18.23;8.85;;;;;;;8.96;48.83;98097.56;10127437;29;20055;-78
2021/03/26 04:58:02;;;;;;;15.20;9.00;;;;;;;8.92;49.18;98102.09;10099006;29;20083;-78
2021/03/26 05:03:46;;;;;;;16.73;9.02;;;;;;;8.76;49.31;98105.03;10109847;29;20041;-78
2021/03/26 05:09:16;;;;;;;15.88;9.25;;;;;;;8.68;49.67;98112.75;10103052;29;20063;-78
2021/03/26 05:15:16;;;;;;;18.83;9.13;;;;;;;8.73;49.62;98114.56;10119158;29;20048;-79
2021/03/26 05:20:56;;;;;;;17.40;8.55;;;;;;;8.97;49.71;98106.66;10091317;29;20044;-78
2021/03/26 05:26:16;;;;;;;15.43;8.93;;;;;;;9.32;49.33;98116.41;10114656;29;20044;-79
2021/03/26 05:32:28;;;;;;;16.02;9.18;;;;;;;10.04;48.99;98117.75;10108995;29;20485;-78
2021/03/26 05:38:12;;;;;;;18.40;9.07;;;;;;;10.89;48.22;98116.97;10106534;29;20052;-78
2021/03/26 05:44:10;;;;;;;17.25;9.35;;;;;;;11.20;47.52;98124.75;10119053;29;20049;-78
2021/03/26 05:50:02;;;;;;;16.02;9.57;;;;;;;11.55;47.01;98123.03;10102302;29;20397;-78
2021/03/26 05:56:04;;;;;;;13.70;9.43;;;;;;;12.46;45.90;98125.00;10114521;29;20049;-79
2021/03/26 06:01:49;;;;;;;17.75;10.25;;;;;;;15.16;45.77;98130.25;10140106;29;20040;-78
2021/03/26 06:07:56;;;;;;;20.60;10.60;;;;;;;17.08;41.12;98137.34;10139529;29;20112;-78
2021/03/26 06:14:09;;;;;;;14.88;9.77;;;;;;;14.79;40.85;98146.41;10349730;23;20056;-75
2021/03/26 06:20:11;;;;;;;14.73;9.48;;;;;;;13.39;41.95;98135.88;10166197;29;20096;-75
2021/03/26 06:27:12;;;;;;;19.07;10.13;;;;;;;12.45;43.13;98143.88;10154609;29;20056;-74
2021/03/26 06:32:54;;;;;;;18.20;9.57;;;;;;;12.02;43.78;98148.66;10162420;29;20124;-75
2021/03/26 06:39:55;;;;;;;17.20;10.38;;;;;;;11.81;43.93;98157.00;10149795;29;20048;-74
2021/03/26 06:45:21;;;;;;;17.67;9.73;;;;;;;12.12;43.86;98160.53;10162061;29;20507;-75
2021/03/26 06:51:53;;;;;;;18.00;10.00;;;;;;;12.95;43.22;98154.13;10162624;29;20437;-74
2021/03/26 06:58:27;;;;;;;18.80;9.60;;;;;;;14.41;43.02;98165.25;10139167;29;21186;-74
2021/03/26 07:04:08;;;;;;;;;;;;;;;17.87;41.91;98158.03;10158309;29;20040;-75
2021/03/26 07:09:45;;;;;;;;;;;;;;;23.33;34.84;98168.53;10136469;29;19923;-75
2021/03/26 07:15:07;;;;;;;25.25;13.73;;;;;;;27.10;33.66;98167.72;10135179;29;19930;-74
2021/03/26 07:21:12;;;;;;;29.43;14.10;;;;;;;28.43;25.15;98169.28;10095605;29;20052;-76
2021/03/26 07:26:53;;;;;;;30.48;14.77;;;;;;;27.14;25.12;98172.03;10110597;29;20048;-75
2021/03/26 07:32:54;;;;;;;21.17;12.02;;;;;;;25.64;24.78;98180.22;10120049;29;20051;-76
2021/03/26 07:38:57;;;;;;;17.70;12.32;;;;;;;25.24;23.21;98174.59;10109184;29;20052;-79
2021/03/26 07:44:24;;;;;;;21.00;12.67;;;;;;;21.65;25.17;98182.41;10126163;29;20108;-79
2021/03/26 07:50:16;;;;;;;20.60;11.43;;;;;;;19.91;26.31;98189.16;10121495;29;20053;-75
2021/03/26 07:55:49;;;;;;;19.27;11.57;;;;;;;18.86;27.15;98192.03;10107900;29;20044;-76
2021/03/26 08:01:32;;;;;;;18.63;11.03;;;;;;;19.16;28.12;98196.13;10122462;29;20048;-76
2021/03/26 08:07:16;;;;;;;18.33;11.45;;;;;;;20.96;27.68;98197.91;10133937;29;20060;-76
2021/03/26 08:13:04;;;;;;;20.52;11.63;;;;;;;31.10;24.06;98196.94;10133694;29;20061;-76
2021/03/26 08:19:02;;;;;;;20.08;12.73;;;;;;;37.34;17.06;98200.75;10086442;29;20040;-77
2021/03/26 08:24:54;;;;;;;16.85;11.60;;;;;;;44.93;10.74;98202.28;10120391;29;20084;-76
2021/03/26 08:31:01;;;;;;;15.60;10.57;;;;;;;49.58;6.67;98201.78;10107377;29;20481;-76
2021/03/26 08:37:03;;;;;;;16.35;11.27;;;;;;;51.90;4.26;98194.56;10130913;29;20056;-77
2021/03/26 08:42:37;;;;;;;12.32;10.15;;;;;;;51.70;4.14;98191.91;10114599;29;20044;-76
2021/03/26 08:48:17;;;;;;;15.98;11.38;;;;;;;51.60;3.35;98189.88;10127021;29;20084;-77
2021/03/26 08:54:23;;;;;;;13.20;10.88;;;;;;;52.33;3.22;98194.88;10114031;29;20044;-76
2021/03/26 09:00:10;;;;;;;13.50;10.70;;;;;;;54.71;2.37;98193.91;10139882;29;20040;-76
2021/03/26 09:06:17;;;;;;;13.57;10.90;;;;;;;54.66;2.18;98189.25;10126772;29;20040;-77
2021/03/26 09:12:09;;;;;;;14.80;10.87;;;;;;;54.19;1.95;98182.25;10126234;29;20056;-76
2021/03/26 09:18:03;;;;;;;14.40;10.00;;;;;;;54.82;1.24;98169.59;10114255;29;20100;-76
2021/03/26 09:23:32;;;;;;;12.30;10.55;;;;;;;53.34;1.95;98164.84;10102851;29;20048;-76
2021/03/26 09:28:53;;;;;;;11.50;9.50;;;;;;;54.25;1.74;98154.75;10137069;29;20100;-77
2021/03/26 09:34:33;;;;;;;12.43;10.05;;;;;;;56.12;1.02;98161.22;10098009;29;20048;-78
2021/03/26 09:39:58;;;;;;;10.48;8.93;;;;;;;56.80;0.67;98151.91;10095375;29;20075;-78
2021/03/26 09:45:55;;;;;;;10.88;8.80;;;;;;;54.76;1.13;98150.03;10109102;29;20074;-77
2021/03/26 09:52:09;;;;;;;10.57;8.93;;;;;;;55.69;1.16;98144.38;10096706;29;20059;-76
2021/03/26 09:57:31;;;;;;;8.95;7.57;;;;;;;55.72;0.50;98142.56;10124817;29;20052;-77
2021/03/26 10:03:03;;;;;;;9.20;6.70;;;;;;;54.68;1.25;98138.25;10137621;29;20052;-77
2021/03/26 10:09:00;;;;;;;12.10;7.28;;;;;;;54.15;1.56;98135.63;10124345;29;20465;-77
2021/03/26 10:14:26;;;;;;;9.23;6.18;;;;;;;55.64;1.16;98129.19;10112835;29;20072;-77
2021/03/26 10:19:50;;;;;;;8.75;6.93;;;;;;;56.22;0.28;98126.44;10098062;29;20052;-76
2021/03/26 10:25:35;;;;;;;8.65;6.97;;;;;;;54.45;1.50;98122.75;10097933;29;20041;-77
2021/03/26 10:31:10;;;;;;;9.35;6.95;;;;;;;52.62;1.22;98120.63;10087775;29;20045;-76
2021/03/26 10:36:50;;;;;;;10.45;7.82;;;;;;;50.90;2.09;98112.31;10111862;29;20067;-76
2021/03/26 10:42:44;;;;;;;10.48;7.63;;;;;;;48.27;2.95;98100.78;10096841;29;20055;-78
2021/03/26 10:48:29;;;;;;;9.90;7.32;;;;;;;44.41;4.81;98106.28;10115697;29;20053;-77
2021/03/26 10:53:58;;;;;;;10.70;7.60;;;;;;;41.35;6.40;98105.38;10136229;29;20413;-79
2021/03/26 10:59:38;;;;;;;11.82;7.68;;;;;;;39.16;7.33;98097.13;10097768;29;20052;-77
2021/03/26 11:05:19;;;;;;;13.70;8.02;;;;;;;37.33;8.42;98085.84;10098603;29;20111;-80
2021/03/26 11:11:05;;;;;;;14.15;8.57;;;;;;;34.89;8.96;98082.72;10122914;29;20066;-80
2021/03/26 11:17:00;;;;;;;12.13;8.32;;;;;;;31.54;10.66;98071.81;10134969;29;20104;-78
2021/03/26 11:22:26;;;;;;;10.88;7.95;;;;;;;30.12;12.66;98073.66;10112861;29;20047;-79
2021/03/26 11:27:49;;;;;;;9.23;7.57;;;;;;;29.82;12.86;98066.56;10096665;29;20056;-82
2021/03/26 11:33:24;;;;;;;11.45;7.85;;;;;;;29.24;13.95;98059.50;10096006;29;20063;-81
2021/03/26 11:38:45;;;;;;;10.85;7.95;;;;;;;27.95;15.40;98052.16;10121733;29;20074;-92
2021/03/26 11:44:04;;;;;;;11.38;8.80;;;;;;;26.68;14.91;98052.75;10121639;29;20527;-81
2021/03/26 11:49:35;;;;;;;10.60;6.45;;;;;;;27.08;15.84;98055.25;10095302;29;20053;-79
2021/03/26 11:55:05;;;;;;;11.20;7.60;;;;;;;26.56;16.25;98041.22;10109804;29;20104;-81
2021/03/26 12:00:36;;;;;;;11.43;4.30;;;;;;;26.52;15.86;98034.00;10070549;29;20385;-81
2021/03/26 12:06:26;;;;;;;10.77;4.00;;;;;;;25.47;16.67;98035.66;10096097;29;20459;-83
2021/03/26 12:12:37;;;;;;;6.63;4.10;;;;;;;24.95;17.48;98027.75;10122328;29;20056;-79
2021/03/26 12:18:26;;;;;;;10.25;3.80;;;;;;;23.96;17.55;98027.47;10138374;29;20056;-78
2021/03/26 12:23:48;;;;;;;6.25;4.05;;;;;;;23.10;18.61;98022.81;10128052;29;20056;-89
2021/03/26 12:29:43;;;;;;;11.17;4.17;;;;;;;23.30;18.94;98025.38;10115202;29;20045;-84
2021/03/26 12:35:33;;;;;;;6.53;3.33;;;;;;;23.25;19.17;98020.28;10117159;29;20044;-86
2021/03/26 12:40:52;;;;;;;5.43;3.13;;;;;;;22.87;19.12;98015.16;10114571;29;20048;-88
2021/03/26 12:46:17;;;;;;;6.30;3.70;;;;;;;22.76;19.56;98014.16;10139778;29;20049;-86
2021/03/26 12:52:05;;;;;;;7.40;3.75;;;;;;;23.92;19.04;98004.56;10140282;29;20049;-85
2021/03/26 12:57:32;;;;;;;7.38;3.63;;;;;;;24.30;19.09;98007.41;10115705;29;20052;-84
2021/03/26 13:03:25;;;;;;;5.53;3.28;;;;;;;24.20;18.84;97992.97;10101131;29;20101;-84
2021/03/26 13:08:47;;;;;;;;;;;;;;;23.81;18.87;97980.84;10127215;29;20127;-93
2021/03/26 13:14:23;;;;;;;5.28;3.38;;;;;;;23.64;18.64;97985.53;10100819;29;19930;-92
2021/03/26 13:19:43;;;;;;;7.70;3.33;;;;;;;23.21;18.51;97968.94;10114390;29;20100;-81
2021/03/26 13:25:23;;;;;;;6.72;3.20;;;;;;;23.04;19.05;97960.03;10099303;29;20040;-82
2021/03/26 13:31:11;;;;;;;7.97;3.28;;;;;;;23.20;18.96;97953.25;10139540;29;20049;-81
2021/03/26 13:36:52;;;;;;;6.32;3.03;;;;;;;22.72;19.30;97960.03;10100713;29;20055;-81
2021/03/26 13:42:31;;;;;;;4.45;2.95;;;;;;;21.79;19.97;97958.38;10100082;29;20041;-80
2021/03/26 13:47:55;;;;;;;6.18;3.22;;;;;;;21.60;20.35;97942.25;10083367;29;20045;-80
2021/03/26 13:53:34;;;;;;;7.88;3.45;;;;;;;21.86;19.90;97945.06;10082810;29;20047;-85
2021/03/26 13:59:12;;;;;;;34.83;5.80;;;;;;;21.74;20.95;97939.06;10082873;29;20051;-83
2021/03/26 14:04:37;;;;;;;6.72;3.00;;;;;;;21.70;20.59;97939.66;10134120;29;20051;-86
2021/03/26 14:10:18;;;;;;;6.78;2.70;;;;;;;22.05;20.84;97923.53;10096724;29;20085;-82
2021/03/26 14:15:38;;;;;;;10.07;3.17;;;;;;;22.26;20.41;97916.97;10123442;29;20492;-84
2021/03/26 14:21:40;;;;;;;24.38;4.13;;;;;;;21.87;20.64;97907.47;10097762;29;20512;-78
2021/03/26 14:27:03;;;;;;;6.70;3.40;;;;;;;21.96;20.82;97900.59;10110533;29;20048;-79
2021/03/26 14:32:55;;;;;;;;;;;;;;;21.61;20.96;97898.25;10136862;29;20445;-80
2021/03/26 14:38:41;;;;;;;6.03;2.88;;;;;;;21.30;25.09;97896.69;10124528;29;19946;-79
2021/03/26 14:44:19;;;;;;;6.22;2.70;;;;;;;21.20;21.82;97888.59;10097621;29;20049;-84
2021/03/26 14:49:48;;;;;;;5.88;2.90;;;;;;;21.23;22.33;97884.44;10084743;29;20108;-81
2021/03/26 14:55:15;;;;;;;5.38;3.10;;;;;;;21.04;22.13;97873.97;10136014;29;20055;-81
2021/03/26 15:00:46;;;;;;;6.45;2.95;;;;;;;20.81;21.88;97864.06;10134574;29;20056;-80
2021/03/26 15:06:45;;;;;;;4.03;2.85;;;;;;;20.22;22.69;97867.94;10132356;29;20036;-80
2021/03/26 15:12:25;;;;;;;4.28;2.28;;;;;;;19.89;22.97;97863.34;10095683;29;20072;-81
2021/03/26 15:18:25;;;;;;;6.43;2.90;;;;;;;19.98;22.74;97856.56;10096705;29;20048;-78
2021/03/26 15:24:29;;;;;;;4.80;2.47;;;;;;;19.85;22.97;97857.53;10121913;29;20436;-81
2021/03/26 15:30:07;;;;;;;;;;;;;;;19.89;23.27;97849.91;10099069;29;20049;-82
2021/03/26 15:36:04;;;;;;;7.65;2.63;;;;;;;19.64;23.76;97848.34;10135664;29;19923;-82
2021/03/26 15:41:42;;;;;;;5.47;2.75;;;;;;;19.31;23.68;97848.63;10085146;29;20053;-86
2021/03/26 15:47:05;;;;;;;9.05;2.90;;;;;;;18.81;24.18;97839.75;10102138;29;20072;-88
2021/03/26 15:52:48;;;;;;;6.85;3.30;;;;;;;18.42;25.23;97843.91;10117066;29;20076;-86
2021/03/26 15:58:23;;;;;;;6.87;3.50;;;;;;;18.07;25.56;97858.09;10143924;29;20047;-78
2021/03/26 16:04:00;;;;;;;7.18;2.92;;;;;;;17.84;25.49;97843.06;10115581;29;20048;-81
2021/03/26 16:10:10;;;;;;;8.13;3.10;;;;;;;17.62;26.23;97828.75;10103031;29;20044;-79
2021/03/26 16:16:16;;;;;;;5.82;3.53;;;;;;;17.53;26.17;97834.69;10104505;29;20112;-81
2021/03/26 16:22:26;;;;;;;6.63;3.42;;;;;;;17.33;26.64;97837.38;10106977;29;20055;-81
2021/03/26 16:35:10;;;;;;;5.93;4.53;;;;;;;17.00;26.95;97824.00;10154889;23;20060;-82
2021/03/26 16:40:58;;;;;;;12.05;6.03;;;;;;;16.82;27.42;97818.28;10076473;29;20090;-82
2021/03/26 16:53:00;;;;;;;17.60;9.40;;;;;;;16.53;27.73;97819.06;10000641;29;20082;-82
2021/03/26 16:58:45;;;;;;;9.30;5.95;;;;;;;16.30;27.83;97823.66;9973243;29;20058;-80
2021/03/26 17:04:11;;;;;;;6.95;4.30;;;;;;;16.11;28.41;97824.16;9993209;29;20057;-80
2021/03/26 17:10:00;;;;;;;7.88;4.50;;;;;;;15.88;29.12;97832.94;10004197;29;20121;-79
2021/03/26 17:16:16;;;;;;;7.32;4.63;;;;;;;15.66;28.96;97829.78;10000414;29;20057;-79
2021/03/26 17:22:05;;;;;;;7.47;4.20;;;;;;;15.49;29.54;97833.84;10014348;29;20050;-78
2021/03/26 17:28:04;;;;;;;8.52;4.68;;;;;;;15.31;29.54;97832.91;9987541;29;20050;-79
2021/03/26 17:33:39;;;;;;;7.63;4.78;;;;;;;15.14;29.96;97837.72;10017543;29;20053;-81
2021/03/26 17:39:53;;;;;;;11.90;5.47;;;;;;;15.08;30.24;97831.06;10019173;29;20058;-77
2021/03/26 17:45:36;;;;;;;13.73;6.00;;;;;;;15.14;30.44;97834.91;10000362;29;20050;-78
2021/03/26 17:57:36;;;;;;;13.77;7.30;;;;;;;15.09;30.83;97840.94;11804481;23;20141;-81
2021/03/26 18:09:46;;;;;;;14.23;8.70;;;;;;;14.64;32.08;97846.31;10433741;23;20452;-79
2021/03/26 18:15:23;;;;;;;18.90;10.93;;;;;;;14.43;32.10;97853.63;10143701;29;20055;-80
2021/03/26 18:21:15;;;;;;;22.25;10.40;;;;;;;14.26;32.27;97854.81;10150014;29;20433;-78
2021/03/26 18:27:17;;;;;;;15.68;10.13;;;;;;;14.14;32.83;97853.44;10140489;29;20076;-79
2021/03/26 18:33:27;;;;;;;14.65;10.02;;;;;;;14.03;33.30;97847.25;10163067;29;20222;-78
2021/03/26 18:39:27;;;;;;;14.65;9.20;;;;;;;13.87;33.31;97848.41;10340392;23;20464;-78
2021/03/26 18:45:01;;;;;;;16.38;9.05;;;;;;;13.71;33.55;97843.38;10138500;29;20040;-79
2021/03/26 18:51:00;;;;;;;13.55;8.90;;;;;;;13.61;33.85;97856.81;10149956;29;20070;-80
2021/03/26 18:56:26;;;;;;;13.57;9.18;;;;;;;13.46;34.04;97860.13;10149198;29;20044;-79
2021/03/26 19:02:15;;;;;;;11.77;8.05;;;;;;;13.43;34.35;97853.69;10162339;29;20480;-80
2021/03/26 19:07:39;;;;;;;15.82;8.95;;;;;;;13.36;34.88;97854.66;10159354;29;20055;-78
2021/03/26 19:13:37;;;;;;;12.80;8.90;;;;;;;13.29;35.58;97850.03;10150375;29;20106;-79
2021/03/26 19:19:35;;;;;;;15.23;9.15;;;;;;;13.22;35.15;97851.06;10139194;29;20060;-79
2021/03/26 19:25:23;;;;;;;16.63;8.48;;;;;;;13.13;35.45;97844.19;10113373;29;20056;-79
2021/03/26 19:31:05;;;;;;;28.00;21.88;;;;;;;13.01;35.55;97842.75;10109591;29;20040;-79
2021/03/26 19:37:04;;;;;;;16.63;10.30;;;;;;;12.88;36.51;97836.41;10109705;29;20116;-79
2021/03/26 19:42:42;;;;;;;14.88;9.35;;;;;;;12.78;36.74;97844.22;10098307;29;20051;-80
2021/03/26 19:48:23;;;;;;;18.85;10.45;;;;;;;12.71;36.22;97841.66;10104229;29;20048;-80
2021/03/26 19:54:06;;;;;;;17.15;11.00;;;;;;;12.57;36.46;97835.94;10122350;29;20044;-78
2021/03/26 19:59:47;;;;;;;22.73;13.35;;;;;;;12.51;36.39;97836.28;10122656;29;20048;-78
2021/03/26 20:05:26;;;;;;;18.33;11.95;;;;;;;12.51;37.31;97839.06;10135576;29;20060;-78
2021/03/26 20:11:04;;;;;;;17.83;11.55;;;;;;;12.53;38.46;97832.84;10110494;29;20051;-80
2021/03/26 20:16:44;;;;;;;18.75;10.45;;;;;;;12.52;37.53;97834.19;10096550;29;20053;-78
2021/03/26 20:22:27;;;;;;;21.08;11.20;;;;;;;12.55;37.29;97830.22;10108003;29;20049;-79
2021/03/26 20:28:15;;;;;;;35.63;22.58;;;;;;;12.44;37.62;97834.44;10109792;29;20045;-80
2021/03/26 20:34:11;;;;;;;25.08;12.45;;;;;;;12.41;37.96;97832.13;10150946;29;20547;-78
2021/03/26 20:39:48;;;;;;;21.88;12.65;;;;;;;12.32;38.26;97828.81;10153764;29;20052;-77
2021/03/26 20:45:43;;;;;;;16.45;10.73;;;;;;;12.31;38.34;97824.56;10142215;29;20052;-77
2021/03/26 20:51:39;;;;;;;22.50;12.73;;;;;;;12.29;38.37;97818.13;10102370;29;20059;-78
2021/03/26 20:57:17;;;;;;;22.23;12.35;;;;;;;11.98;38.51;97812.69;10105661;29;20052;-78
2021/03/26 21:02:49;;;;;;;20.77;12.25;;;;;;;11.93;39.16;97808.16;10118435;29;20449;-78
2021/03/26 21:08:54;;;;;;;28.17;13.48;;;;;;;11.85;39.48;97805.59;10140782;29;20044;-78
2021/03/26 21:14:18;;;;;;;;;;;;;;;11.86;40.19;97795.13;10148977;29;20503;-78
2021/03/26 21:19:58;;;;;;;23.73;13.18;;;;;;;11.83;39.77;97799.88;10151227;29;19978;-79
2021/03/26 21:25:17;;;;;;;24.30;15.15;;;;;;;11.81;39.84;97793.41;10151676;29;20554;-79
2021/03/26 21:30:56;;;;;;;24.02;14.48;;;;;;;11.74;39.84;97793.00;10164582;29;20087;-78
2021/03/26 21:36:49;;;;;;;32.38;20.50;;;;;;;11.82;40.19;97790.00;10137941;29;20056;-78
2021/03/26 21:42:18;;;;;;;24.65;14.00;;;;;;;11.71;40.51;97785.81;10158821;29;20032;-78
2021/03/26 21:47:59;;;;;;;26.73;15.80;;;;;;;11.75;40.43;97780.47;10175746;29;20044;-78
2021/03/26 21:54:01;;;;;;;29.45;18.88;;;;;;;11.67;40.64;97774.34;10164046;29;20123;-79
2021/03/26 21:59:34;;;;;;;21.60;13.63;;;;;;;11.61;40.57;97774.00;10162356;29;20036;-79
2021/03/26 22:05:32;;;;;;;20.95;12.93;;;;;;;11.57;41.54;97765.34;10149896;29;20452;-79
2021/03/26 22:11:16;;;;;;;17.08;11.18;;;;;;;11.54;41.23;97774.19;10139874;29;20385;-79
2021/03/26 22:16:54;;;;;;;20.15;11.90;;;;;;;11.45;41.07;97761.75;10138217;29;20059;-79
2021/03/26 22:22:32;;;;;;;19.80;11.73;;;;;;;11.36;41.55;97757.72;10151810;29;20107;-79
2021/03/26 22:28:09;;;;;;;21.35;12.30;;;;;;;11.36;41.30;97751.41;10126314;29;20514;-79
2021/03/26 22:34:24;;;;;;;20.38;12.73;;;;;;;11.32;41.88;97751.88;10163130;29;20041;-79
2021/03/26 22:39:46;;;;;;;22.92;12.40;;;;;;;11.21;41.69;97746.25;10151247;29;20052;-79
2021/03/26 22:45:08;;;;;;;19.73;12.73;;;;;;;11.14;41.55;97754.22;10124228;29;20048;-78
2021/03/26 22:50:48;;;;;;;19.30;12.68;;;;;;;11.09;42.23;97749.69;10136962;29;20067;-79
2021/03/26 22:56:27;;;;;;;22.50;13.70;;;;;;;10.97;42.63;97746.09;10148993;29;20488;-79
2021/03/26 23:01:47;;;;;;;21.63;14.63;;;;;;;10.83;42.46;97736.78;10124224;29;20040;-78
2021/03/26 23:07:10;;;;;;;22.85;14.00;;;;;;;10.72;43.61;97738.19;10136100;29;20048;-79
2021/03/26 23:12:33;;;;;;;24.77;15.18;;;;;;;10.62;43.92;97739.56;10149179;29;20044;-79
2021/03/26 23:18:01;;;;;;;28.75;15.77;;;;;;;10.49;44.69;97741.53;10123226;29;20044;-79
2021/03/26 23:23:24;;;;;;;18.35;13.43;;;;;;;10.40;44.41;97728.34;10122385;29;20046;-79
2021/03/26 23:29:03;;;;;;;20.10;13.07;;;;;;;10.34;44.71;97727.22;10135379;29;20048;-78
2021/03/26 23:34:41;;;;;;;20.40;13.55;;;;;;;10.30;45.86;97747.19;10138012;29;20072;-79
2021/03/26 23:40:12;;;;;;;19.15;12.95;;;;;;;10.23;45.19;97720.97;10137338;29;20067;-79
2021/03/26 23:45:52;;;;;;;22.17;13.82;;;;;;;10.20;46.72;97727.69;10122782;29;20075;-79
2021/03/26 23:51:22;;;;;;;20.80;13.57;;;;;;;10.10;45.64;97721.41;10148354;29;20531;-79
2021/03/26 23:56:51;;;;;;;21.15;13.38;;;;;;;10.04;46.51;97724.53;10124381;29;20036;-79
